sensor_id;sensor_type;location;lat;lon;timestamp;P1;durP1;ratioP1;P2;durP2;ratioP2
10659;SDS011;5378;53.206;13.316;2023-07-31T00:01:56;1.80;;;1.40;;
10659;SDS011;5378;53.206;13.316;2023-07-31T00:04:44;2.70;;;1.13;;
10659;SDS011;5378;53.206;13.316;2023-07-31T00:07:31;9.00;;;1.40;;
10659;SDS011;5378;53.206;13.316;2023-07-31T00:10:18;3.77;;;1.27;;
10659;SDS011;5378;53.206;13.316;2023-07-31T00:13:06;4.33;;;1.53;;
10659;SDS011;5378;53.206;13.316;2023-07-31T00:15:53;4.67;;;1.50;;
10659;SDS011;5378;53.206;13.316;2023-07-31T00:18:42;4.80;;;1.67;;
10659;SDS011;5378;53.206;13.316;2023-07-31T00:21:29;6.73;;;1.83;;
10659;SDS011;5378;53.206;13.316;2023-07-31T00:24:16;4.90;;;1.73;;
10659;SDS011;5378;53.206;13.316;2023-07-31T00:27:03;3.63;;;1.70;;
10659;SDS011;5378;53.206;13.316;2023-07-31T00:29:51;5.40;;;1.70;;
10659;SDS011;5378;53.206;13.316;2023-07-31T00:32:38;2.57;;;1.80;;
10659;SDS011;5378;53.206;13.316;2023-07-31T00:35:27;2.17;;;1.90;;
10659;SDS011;5378;53.206;13.316;2023-07-31T00:38:14;12.00;;;1.73;;
10659;SDS011;5378;53.206;13.316;2023-07-31T00:41:01;3.40;;;1.77;;
10659;SDS011;5378;53.206;13.316;2023-07-31T00:43:48;3.23;;;1.80;;
10659;SDS011;5378;53.206;13.316;2023-07-31T00:46:35;2.90;;;1.73;;
10659;SDS011;5378;53.206;13.316;2023-07-31T00:49:23;4.67;;;1.50;;
10659;SDS011;5378;53.206;13.316;2023-07-31T00:52:11;5.57;;;1.70;;
10659;SDS011;5378;53.206;13.316;2023-07-31T00:54:58;1.43;;;1.30;;
10659;SDS011;5378;53.206;13.316;2023-07-31T00:57:48;3.80;;;1.50;;
10659;SDS011;5378;53.206;13.316;2023-07-31T01:00:37;3.17;;;1.80;;
10659;SDS011;5378;53.206;13.316;2023-07-31T01:03:25;1.70;;;1.60;;
10659;SDS011;5378;53.206;13.316;2023-07-31T01:06:14;3.57;;;2.03;;
10659;SDS011;5378;53.206;13.316;2023-07-31T01:09:06;3.53;;;1.63;;
10659;SDS011;5378;53.206;13.316;2023-07-31T01:12:00;3.03;;;1.93;;
10659;SDS011;5378;53.206;13.316;2023-07-31T01:14:52;3.03;;;1.80;;
10659;SDS011;5378;53.206;13.316;2023-07-31T01:17:49;5.53;;;2.60;;
10659;SDS011;5378;53.206;13.316;2023-07-31T01:20:36;1.90;;;1.60;;
10659;SDS011;5378;53.206;13.316;2023-07-31T01:23:35;3.77;;;1.90;;
10659;SDS011;5378;53.206;13.316;2023-07-31T01:26:38;3.50;;;1.60;;
10659;SDS011;5378;53.206;13.316;2023-07-31T01:29:29;4.30;;;1.90;;
10659;SDS011;5378;53.206;13.316;2023-07-31T01:32:24;11.27;;;2.00;;
10659;SDS011;5378;53.206;13.316;2023-07-31T01:35:14;3.67;;;2.10;;
10659;SDS011;5378;53.206;13.316;2023-07-31T01:38:02;9.23;;;2.17;;
10659;SDS011;5378;53.206;13.316;2023-07-31T01:40:50;3.27;;;1.33;;
10659;SDS011;5378;53.206;13.316;2023-07-31T01:43:40;5.93;;;2.00;;
10659;SDS011;5378;53.206;13.316;2023-07-31T01:46:27;5.63;;;1.90;;
10659;SDS011;5378;53.206;13.316;2023-07-31T01:49:14;4.23;;;1.93;;
10659;SDS011;5378;53.206;13.316;2023-07-31T01:52:01;3.43;;;1.60;;
10659;SDS011;5378;53.206;13.316;2023-07-31T01:54:49;3.17;;;1.67;;
10659;SDS011;5378;53.206;13.316;2023-07-31T01:57:36;4.53;;;1.43;;
10659;SDS011;5378;53.206;13.316;2023-07-31T02:00:25;4.37;;;1.70;;
10659;SDS011;5378;53.206;13.316;2023-07-31T02:03:11;6.70;;;2.20;;
10659;SDS011;5378;53.206;13.316;2023-07-31T02:05:58;11.43;;;2.17;;
10659;SDS011;5378;53.206;13.316;2023-07-31T02:08:46;3.57;;;1.60;;
10659;SDS011;5378;53.206;13.316;2023-07-31T02:11:33;7.00;;;2.10;;
10659;SDS011;5378;53.206;13.316;2023-07-31T02:14:20;5.13;;;2.10;;
10659;SDS011;5378;53.206;13.316;2023-07-31T02:17:08;3.93;;;2.33;;
10659;SDS011;5378;53.206;13.316;2023-07-31T02:19:55;3.90;;;1.97;;
10659;SDS011;5378;53.206;13.316;2023-07-31T02:22:43;6.17;;;2.00;;
10659;SDS011;5378;53.206;13.316;2023-07-31T02:25:30;10.37;;;2.10;;
10659;SDS011;5378;53.206;13.316;2023-07-31T02:28:17;4.13;;;1.97;;
10659;SDS011;5378;53.206;13.316;2023-07-31T02:31:04;5.00;;;2.13;;
10659;SDS011;5378;53.206;13.316;2023-07-31T02:33:54;2.67;;;1.50;;
10659;SDS011;5378;53.206;13.316;2023-07-31T02:36:41;7.90;;;2.90;;
10659;SDS011;5378;53.206;13.316;2023-07-31T02:39:28;4.93;;;1.47;;
10659;SDS011;5378;53.206;13.316;2023-07-31T02:42:15;5.00;;;2.27;;
10659;SDS011;5378;53.206;13.316;2023-07-31T02:45:02;5.40;;;1.83;;
10659;SDS011;5378;53.206;13.316;2023-07-31T02:47:51;2.90;;;1.67;;
10659;SDS011;5378;53.206;13.316;2023-07-31T02:50:40;2.47;;;1.43;;
10659;SDS011;5378;53.206;13.316;2023-07-31T02:53:27;3.87;;;1.93;;
10659;SDS011;5378;53.206;13.316;2023-07-31T02:56:15;2.40;;;2.00;;
10659;SDS011;5378;53.206;13.316;2023-07-31T02:59:02;7.63;;;1.83;;
10659;SDS011;5378;53.206;13.316;2023-07-31T03:01:48;2.97;;;1.57;;
10659;SDS011;5378;53.206;13.316;2023-07-31T03:04:36;2.13;;;1.57;;
10659;SDS011;5378;53.206;13.316;2023-07-31T03:07:24;2.40;;;1.50;;
10659;SDS011;5378;53.206;13.316;2023-07-31T03:10:11;4.80;;;1.63;;
10659;SDS011;5378;53.206;13.316;2023-07-31T03:12:59;4.97;;;1.57;;
10659;SDS011;5378;53.206;13.316;2023-07-31T03:15:46;1.57;;;1.30;;
10659;SDS011;5378;53.206;13.316;2023-07-31T03:18:33;5.10;;;1.53;;
10659;SDS011;5378;53.206;13.316;2023-07-31T03:21:20;3.40;;;1.27;;
10659;SDS011;5378;53.206;13.316;2023-07-31T03:24:09;4.03;;;1.53;;
10659;SDS011;5378;53.206;13.316;2023-07-31T03:26:57;2.03;;;1.67;;
10659;SDS011;5378;53.206;13.316;2023-07-31T03:29:45;4.27;;;1.60;;
10659;SDS011;5378;53.206;13.316;2023-07-31T03:32:32;4.07;;;1.50;;
10659;SDS011;5378;53.206;13.316;2023-07-31T03:35:19;4.70;;;1.77;;
10659;SDS011;5378;53.206;13.316;2023-07-31T03:38:06;4.47;;;1.60;;
10659;SDS011;5378;53.206;13.316;2023-07-31T03:40:57;3.47;;;2.03;;
10659;SDS011;5378;53.206;13.316;2023-07-31T03:43:45;4.30;;;1.80;;
10659;SDS011;5378;53.206;13.316;2023-07-31T03:46:32;3.27;;;1.73;;
10659;SDS011;5378;53.206;13.316;2023-07-31T03:49:21;5.37;;;1.80;;
10659;SDS011;5378;53.206;13.316;2023-07-31T03:52:08;3.57;;;1.73;;
10659;SDS011;5378;53.206;13.316;2023-07-31T03:54:55;8.50;;;1.60;;
10659;SDS011;5378;53.206;13.316;2023-07-31T03:57:44;11.00;;;2.13;;
10659;SDS011;5378;53.206;13.316;2023-07-31T04:00:31;6.77;;;1.93;;
10659;SDS011;5378;53.206;13.316;2023-07-31T04:03:18;9.53;;;2.30;;
10659;SDS011;5378;53.206;13.316;2023-07-31T04:06:05;3.17;;;1.80;;
10659;SDS011;5378;53.206;13.316;2023-07-31T04:08:53;4.53;;;1.87;;
10659;SDS011;5378;53.206;13.316;2023-07-31T04:11:41;7.90;;;1.87;;
10659;SDS011;5378;53.206;13.316;2023-07-31T04:14:29;10.27;;;2.40;;
10659;SDS011;5378;53.206;13.316;2023-07-31T04:17:17;7.30;;;1.93;;
10659;SDS011;5378;53.206;13.316;2023-07-31T04:20:05;2.37;;;1.77;;
10659;SDS011;5378;53.206;13.316;2023-07-31T04:22:53;6.60;;;1.77;;
10659;SDS011;5378;53.206;13.316;2023-07-31T04:25:40;3.83;;;1.97;;
10659;SDS011;5378;53.206;13.316;2023-07-31T04:28:27;8.10;;;2.10;;
10659;SDS011;5378;53.206;13.316;2023-07-31T04:31:15;5.50;;;2.77;;
10659;SDS011;5378;53.206;13.316;2023-07-31T04:34:03;2.40;;;1.67;;
10659;SDS011;5378;53.206;13.316;2023-07-31T04:36:50;2.97;;;1.80;;
10659;SDS011;5378;53.206;13.316;2023-07-31T04:39:37;3.80;;;2.00;;
10659;SDS011;5378;53.206;13.316;2023-07-31T04:42:24;7.30;;;1.67;;
10659;SDS011;5378;53.206;13.316;2023-07-31T04:45:11;7.23;;;1.60;;
10659;SDS011;5378;53.206;13.316;2023-07-31T04:47:59;2.30;;;1.80;;
10659;SDS011;5378;53.206;13.316;2023-07-31T04:50:47;2.83;;;1.67;;
10659;SDS011;5378;53.206;13.316;2023-07-31T04:53:34;3.07;;;1.70;;
10659;SDS011;5378;53.206;13.316;2023-07-31T04:56:21;3.37;;;1.30;;
10659;SDS011;5378;53.206;13.316;2023-07-31T04:59:08;5.83;;;1.63;;
10659;SDS011;5378;53.206;13.316;2023-07-31T05:01:55;4.63;;;1.67;;
10659;SDS011;5378;53.206;13.316;2023-07-31T05:04:43;8.97;;;1.50;;
10659;SDS011;5378;53.206;13.316;2023-07-31T05:07:31;2.27;;;1.30;;
10659;SDS011;5378;53.206;13.316;2023-07-31T05:10:18;4.03;;;2.07;;
10659;SDS011;5378;53.206;13.316;2023-07-31T05:13:05;2.30;;;1.10;;
10659;SDS011;5378;53.206;13.316;2023-07-31T05:15:52;3.00;;;1.43;;
10659;SDS011;5378;53.206;13.316;2023-07-31T05:18:39;5.63;;;1.40;;
10659;SDS011;5378;53.206;13.316;2023-07-31T05:21:28;5.27;;;1.27;;
10659;SDS011;5378;53.206;13.316;2023-07-31T05:24:15;2.40;;;1.00;;
10659;SDS011;5378;53.206;13.316;2023-07-31T05:27:03;1.93;;;1.00;;
10659;SDS011;5378;53.206;13.316;2023-07-31T05:29:51;2.70;;;1.43;;
10659;SDS011;5378;53.206;13.316;2023-07-31T05:32:38;3.20;;;1.17;;
10659;SDS011;5378;53.206;13.316;2023-07-31T05:35:25;2.00;;;1.23;;
10659;SDS011;5378;53.206;13.316;2023-07-31T05:38:13;2.70;;;1.10;;
10659;SDS011;5378;53.206;13.316;2023-07-31T05:41:00;2.77;;;1.27;;
10659;SDS011;5378;53.206;13.316;2023-07-31T05:43:48;5.43;;;0.80;;
10659;SDS011;5378;53.206;13.316;2023-07-31T05:46:35;1.93;;;0.90;;
10659;SDS011;5378;53.206;13.316;2023-07-31T05:49:22;5.83;;;1.33;;
10659;SDS011;5378;53.206;13.316;2023-07-31T05:52:09;4.93;;;1.43;;
10659;SDS011;5378;53.206;13.316;2023-07-31T05:54:57;4.00;;;1.80;;
10659;SDS011;5378;53.206;13.316;2023-07-31T05:57:44;2.23;;;1.90;;
10659;SDS011;5378;53.206;13.316;2023-07-31T06:00:32;2.90;;;1.70;;
10659;SDS011;5378;53.206;13.316;2023-07-31T06:03:19;3.83;;;1.60;;
10659;SDS011;5378;53.206;13.316;2023-07-31T06:06:06;1.57;;;1.27;;
10659;SDS011;5378;53.206;13.316;2023-07-31T06:08:53;2.70;;;1.60;;
10659;SDS011;5378;53.206;13.316;2023-07-31T06:11:41;3.87;;;1.77;;
10659;SDS011;5378;53.206;13.316;2023-07-31T06:14:28;2.70;;;1.73;;
10659;SDS011;5378;53.206;13.316;2023-07-31T06:17:15;4.30;;;2.00;;
10659;SDS011;5378;53.206;13.316;2023-07-31T06:20:06;10.00;;;2.03;;
10659;SDS011;5378;53.206;13.316;2023-07-31T06:22:53;4.73;;;1.53;;
10659;SDS011;5378;53.206;13.316;2023-07-31T06:25:40;4.60;;;1.97;;
10659;SDS011;5378;53.206;13.316;2023-07-31T06:28:29;5.70;;;1.70;;
10659;SDS011;5378;53.206;13.316;2023-07-31T06:31:17;4.10;;;2.30;;
10659;SDS011;5378;53.206;13.316;2023-07-31T06:34:08;3.90;;;2.17;;
10659;SDS011;5378;53.206;13.316;2023-07-31T06:36:55;4.77;;;2.00;;
10659;SDS011;5378;53.206;13.316;2023-07-31T06:39:43;2.93;;;1.50;;
10659;SDS011;5378;53.206;13.316;2023-07-31T06:42:30;2.90;;;1.70;;
10659;SDS011;5378;53.206;13.316;2023-07-31T06:45:18;2.70;;;1.60;;
10659;SDS011;5378;53.206;13.316;2023-07-31T06:48:07;2.30;;;1.40;;
10659;SDS011;5378;53.206;13.316;2023-07-31T06:50:54;9.50;;;2.43;;
10659;SDS011;5378;53.206;13.316;2023-07-31T06:53:41;2.30;;;1.33;;
10659;SDS011;5378;53.206;13.316;2023-07-31T06:56:30;4.13;;;1.47;;
10659;SDS011;5378;53.206;13.316;2023-07-31T06:59:18;4.97;;;1.73;;
10659;SDS011;5378;53.206;13.316;2023-07-31T07:02:06;11.27;;;1.80;;
10659;SDS011;5378;53.206;13.316;2023-07-31T07:04:54;5.17;;;2.20;;
10659;SDS011;5378;53.206;13.316;2023-07-31T07:07:41;1.40;;;1.20;;
10659;SDS011;5378;53.206;13.316;2023-07-31T07:10:28;4.67;;;2.10;;
10659;SDS011;5378;53.206;13.316;2023-07-31T07:13:15;3.60;;;1.53;;
10659;SDS011;5378;53.206;13.316;2023-07-31T07:16:03;4.33;;;1.77;;
10659;SDS011;5378;53.206;13.316;2023-07-31T07:18:52;1.90;;;1.30;;
10659;SDS011;5378;53.206;13.316;2023-07-31T07:21:47;2.17;;;1.30;;
10659;SDS011;5378;53.206;13.316;2023-07-31T07:24:34;2.80;;;1.37;;
10659;SDS011;5378;53.206;13.316;2023-07-31T07:27:21;3.63;;;1.40;;
10659;SDS011;5378;53.206;13.316;2023-07-31T07:30:09;1.97;;;1.20;;
10659;SDS011;5378;53.206;13.316;2023-07-31T07:32:56;1.90;;;1.20;;
10659;SDS011;5378;53.206;13.316;2023-07-31T07:35:44;3.07;;;1.30;;
10659;SDS011;5378;53.206;13.316;2023-07-31T07:38:32;2.60;;;1.60;;
10659;SDS011;5378;53.206;13.316;2023-07-31T07:41:19;2.57;;;1.47;;
10659;SDS011;5378;53.206;13.316;2023-07-31T07:44:07;3.07;;;1.37;;
10659;SDS011;5378;53.206;13.316;2023-07-31T07:46:55;2.83;;;1.43;;
10659;SDS011;5378;53.206;13.316;2023-07-31T07:49:42;3.63;;;1.10;;
10659;SDS011;5378;53.206;13.316;2023-07-31T07:52:33;1.47;;;1.03;;
10659;SDS011;5378;53.206;13.316;2023-07-31T07:55:20;3.77;;;1.10;;
10659;SDS011;5378;53.206;13.316;2023-07-31T07:58:08;3.17;;;1.17;;
10659;SDS011;5378;53.206;13.316;2023-07-31T08:00:55;2.60;;;1.33;;
10659;SDS011;5378;53.206;13.316;2023-07-31T08:03:42;4.53;;;1.17;;
10659;SDS011;5378;53.206;13.316;2023-07-31T08:06:29;4.30;;;1.67;;
10659;SDS011;5378;53.206;13.316;2023-07-31T08:09:17;2.63;;;1.30;;
10659;SDS011;5378;53.206;13.316;2023-07-31T08:12:05;1.80;;;1.40;;
10659;SDS011;5378;53.206;13.316;2023-07-31T08:14:52;2.03;;;1.00;;
10659;SDS011;5378;53.206;13.316;2023-07-31T08:17:39;2.17;;;1.57;;
10659;SDS011;5378;53.206;13.316;2023-07-31T08:20:27;2.33;;;1.43;;
10659;SDS011;5378;53.206;13.316;2023-07-31T08:23:14;3.63;;;1.23;;
10659;SDS011;5378;53.206;13.316;2023-07-31T08:26:02;1.03;;;0.90;;
10659;SDS011;5378;53.206;13.316;2023-07-31T08:28:49;4.23;;;1.20;;
10659;SDS011;5378;53.206;13.316;2023-07-31T08:31:36;2.47;;;1.37;;
10659;SDS011;5378;53.206;13.316;2023-07-31T08:34:24;1.83;;;1.03;;
10659;SDS011;5378;53.206;13.316;2023-07-31T08:37:11;3.93;;;1.40;;
10659;SDS011;5378;53.206;13.316;2023-07-31T08:39:58;3.30;;;1.20;;
10659;SDS011;5378;53.206;13.316;2023-07-31T08:42:48;1.20;;;1.10;;
10659;SDS011;5378;53.206;13.316;2023-07-31T08:45:36;2.40;;;0.90;;
10659;SDS011;5378;53.206;13.316;2023-07-31T08:48:24;1.10;;;0.80;;
10659;SDS011;5378;53.206;13.316;2023-07-31T08:51:13;3.10;;;1.40;;
10659;SDS011;5378;53.206;13.316;2023-07-31T08:54:01;2.80;;;1.17;;
10659;SDS011;5378;53.206;13.316;2023-07-31T08:56:49;1.60;;;0.93;;
10659;SDS011;5378;53.206;13.316;2023-07-31T08:59:39;2.13;;;1.20;;
10659;SDS011;5378;53.206;13.316;2023-07-31T09:02:29;2.90;;;1.63;;
10659;SDS011;5378;53.206;13.316;2023-07-31T09:05:21;2.70;;;1.40;;
10659;SDS011;5378;53.206;13.316;2023-07-31T09:08:09;2.20;;;1.37;;
10659;SDS011;5378;53.206;13.316;2023-07-31T09:10:58;1.07;;;0.93;;
10659;SDS011;5378;53.206;13.316;2023-07-31T09:13:46;3.00;;;1.33;;
10659;SDS011;5378;53.206;13.316;2023-07-31T09:16:36;1.60;;;1.17;;
10659;SDS011;5378;53.206;13.316;2023-07-31T09:19:39;2.40;;;1.40;;
10659;SDS011;5378;53.206;13.316;2023-07-31T09:22:31;1.87;;;1.13;;
10659;SDS011;5378;53.206;13.316;2023-07-31T09:25:20;2.10;;;1.27;;
10659;SDS011;5378;53.206;13.316;2023-07-31T09:28:09;0.97;;;0.80;;
10659;SDS011;5378;53.206;13.316;2023-07-31T09:30:56;1.30;;;1.00;;
10659;SDS011;5378;53.206;13.316;2023-07-31T09:33:54;1.00;;;0.80;;
10659;SDS011;5378;53.206;13.316;2023-07-31T09:36:43;1.40;;;0.83;;
10659;SDS011;5378;53.206;13.316;2023-07-31T09:39:31;0.90;;;0.70;;
10659;SDS011;5378;53.206;13.316;2023-07-31T09:42:24;2.63;;;1.17;;
10659;SDS011;5378;53.206;13.316;2023-07-31T09:45:12;3.13;;;1.00;;
10659;SDS011;5378;53.206;13.316;2023-07-31T09:48:04;1.30;;;1.13;;
10659;SDS011;5378;53.206;13.316;2023-07-31T09:50:56;2.40;;;1.20;;
10659;SDS011;5378;53.206;13.316;2023-07-31T09:53:50;5.23;;;1.37;;
10659;SDS011;5378;53.206;13.316;2023-07-31T09:56:38;1.10;;;1.00;;
10659;SDS011;5378;53.206;13.316;2023-07-31T09:59:29;2.70;;;1.10;;
10659;SDS011;5378;53.206;13.316;2023-07-31T10:02:19;5.23;;;1.40;;
10659;SDS011;5378;53.206;13.316;2023-07-31T10:05:08;3.03;;;1.00;;
10659;SDS011;5378;53.206;13.316;2023-07-31T10:07:57;1.33;;;0.90;;
10659;SDS011;5378;53.206;13.316;2023-07-31T10:10:44;1.27;;;0.90;;
10659;SDS011;5378;53.206;13.316;2023-07-31T10:13:32;1.33;;;0.90;;
10659;SDS011;5378;53.206;13.316;2023-07-31T10:16:20;1.17;;;1.00;;
10659;SDS011;5378;53.206;13.316;2023-07-31T10:19:09;2.10;;;1.20;;
10659;SDS011;5378;53.206;13.316;2023-07-31T10:21:57;3.43;;;1.03;;
10659;SDS011;5378;53.206;13.316;2023-07-31T10:24:46;1.43;;;1.10;;
10659;SDS011;5378;53.206;13.316;2023-07-31T10:27:35;1.30;;;1.07;;
10659;SDS011;5378;53.206;13.316;2023-07-31T10:30:26;2.17;;;1.20;;
10659;SDS011;5378;53.206;13.316;2023-07-31T10:33:15;2.23;;;1.40;;
10659;SDS011;5378;53.206;13.316;2023-07-31T10:36:14;1.20;;;1.10;;
10659;SDS011;5378;53.206;13.316;2023-07-31T10:39:04;1.80;;;1.37;;
10659;SDS011;5378;53.206;13.316;2023-07-31T10:42:22;1.10;;;1.00;;
10659;SDS011;5378;53.206;13.316;2023-07-31T10:45:23;1.60;;;1.50;;
10659;SDS011;5378;53.206;13.316;2023-07-31T10:48:12;1.70;;;1.20;;
10659;SDS011;5378;53.206;13.316;2023-07-31T10:51:01;1.50;;;1.40;;
10659;SDS011;5378;53.206;13.316;2023-07-31T10:53:59;1.50;;;1.13;;
10659;SDS011;5378;53.206;13.316;2023-07-31T10:56:57;1.40;;;1.10;;
10659;SDS011;5378;53.206;13.316;2023-07-31T10:59:45;1.93;;;1.33;;
10659;SDS011;5378;53.206;13.316;2023-07-31T11:02:33;2.60;;;1.30;;
10659;SDS011;5378;53.206;13.316;2023-07-31T11:05:20;2.73;;;1.10;;
10659;SDS011;5378;53.206;13.316;2023-07-31T11:08:10;1.80;;;1.17;;
10659;SDS011;5378;53.206;13.316;2023-07-31T11:11:05;0.70;;;0.70;;
10659;SDS011;5378;53.206;13.316;2023-07-31T11:13:53;0.90;;;0.53;;
10659;SDS011;5378;53.206;13.316;2023-07-31T11:16:43;1.17;;;1.07;;
10659;SDS011;5378;53.206;13.316;2023-07-31T11:19:30;0.70;;;0.50;;
10659;SDS011;5378;53.206;13.316;2023-07-31T11:22:17;0.70;;;0.50;;
10659;SDS011;5378;53.206;13.316;2023-07-31T11:25:04;0.80;;;0.40;;
10659;SDS011;5378;53.206;13.316;2023-07-31T11:27:53;1.13;;;0.70;;
10659;SDS011;5378;53.206;13.316;2023-07-31T11:30:42;0.70;;;0.50;;
10659;SDS011;5378;53.206;13.316;2023-07-31T11:33:31;0.90;;;0.67;;
10659;SDS011;5378;53.206;13.316;2023-07-31T11:36:19;1.03;;;0.50;;
10659;SDS011;5378;53.206;13.316;2023-07-31T11:39:07;1.10;;;1.00;;
10659;SDS011;5378;53.206;13.316;2023-07-31T11:41:58;1.70;;;0.90;;
10659;SDS011;5378;53.206;13.316;2023-07-31T11:44:45;1.87;;;1.23;;
10659;SDS011;5378;53.206;13.316;2023-07-31T11:47:33;2.13;;;1.53;;
10659;SDS011;5378;53.206;13.316;2023-07-31T11:50:23;1.73;;;1.53;;
10659;SDS011;5378;53.206;13.316;2023-07-31T11:53:11;1.47;;;1.33;;
10659;SDS011;5378;53.206;13.316;2023-07-31T11:56:01;3.47;;;2.10;;
10659;SDS011;5378;53.206;13.316;2023-07-31T11:58:51;2.53;;;1.70;;
10659;SDS011;5378;53.206;13.316;2023-07-31T12:01:41;6.03;;;2.57;;
10659;SDS011;5378;53.206;13.316;2023-07-31T12:04:28;4.23;;;2.33;;
10659;SDS011;5378;53.206;13.316;2023-07-31T12:07:17;3.33;;;2.37;;
10659;SDS011;5378;53.206;13.316;2023-07-31T12:10:04;8.90;;;2.80;;
10659;SDS011;5378;53.206;13.316;2023-07-31T12:12:56;4.87;;;2.60;;
10659;SDS011;5378;53.206;13.316;2023-07-31T12:15:45;3.97;;;2.33;;
10659;SDS011;5378;53.206;13.316;2023-07-31T12:18:33;4.90;;;2.53;;
10659;SDS011;5378;53.206;13.316;2023-07-31T12:21:21;4.10;;;2.63;;
10659;SDS011;5378;53.206;13.316;2023-07-31T12:24:10;3.80;;;3.17;;
10659;SDS011;5378;53.206;13.316;2023-07-31T12:26:57;4.30;;;2.90;;
10659;SDS011;5378;53.206;13.316;2023-07-31T12:29:44;7.47;;;3.60;;
10659;SDS011;5378;53.206;13.316;2023-07-31T12:32:31;5.87;;;3.07;;
10659;SDS011;5378;53.206;13.316;2023-07-31T12:35:18;5.30;;;3.57;;
10659;SDS011;5378;53.206;13.316;2023-07-31T12:38:06;5.83;;;2.77;;
10659;SDS011;5378;53.206;13.316;2023-07-31T12:40:54;3.70;;;2.87;;
10659;SDS011;5378;53.206;13.316;2023-07-31T12:43:41;4.70;;;2.43;;
10659;SDS011;5378;53.206;13.316;2023-07-31T12:46:30;4.43;;;3.20;;
10659;SDS011;5378;53.206;13.316;2023-07-31T12:49:17;6.90;;;3.30;;
10659;SDS011;5378;53.206;13.316;2023-07-31T12:52:04;6.27;;;3.83;;
10659;SDS011;5378;53.206;13.316;2023-07-31T12:54:52;6.90;;;3.30;;
10659;SDS011;5378;53.206;13.316;2023-07-31T12:57:40;3.40;;;2.90;;
10659;SDS011;5378;53.206;13.316;2023-07-31T13:00:28;6.33;;;3.93;;
10659;SDS011;5378;53.206;13.316;2023-07-31T13:03:15;14.23;;;3.90;;
10659;SDS011;5378;53.206;13.316;2023-07-31T13:06:03;6.83;;;3.77;;
10659;SDS011;5378;53.206;13.316;2023-07-31T13:08:51;8.60;;;3.67;;
10659;SDS011;5378;53.206;13.316;2023-07-31T13:11:38;4.70;;;3.03;;
10659;SDS011;5378;53.206;13.316;2023-07-31T13:14:27;9.23;;;4.60;;
10659;SDS011;5378;53.206;13.316;2023-07-31T13:17:14;7.17;;;3.97;;
10659;SDS011;5378;53.206;13.316;2023-07-31T13:20:01;5.43;;;3.40;;
10659;SDS011;5378;53.206;13.316;2023-07-31T13:22:50;4.90;;;2.87;;
10659;SDS011;5378;53.206;13.316;2023-07-31T13:25:37;4.23;;;3.03;;
10659;SDS011;5378;53.206;13.316;2023-07-31T13:28:24;4.90;;;2.93;;
10659;SDS011;5378;53.206;13.316;2023-07-31T13:31:13;7.70;;;2.67;;
10659;SDS011;5378;53.206;13.316;2023-07-31T13:34:00;3.40;;;2.93;;
10659;SDS011;5378;53.206;13.316;2023-07-31T13:36:47;6.20;;;2.70;;
10659;SDS011;5378;53.206;13.316;2023-07-31T13:39:34;2.50;;;2.00;;
10659;SDS011;5378;53.206;13.316;2023-07-31T13:42:22;3.97;;;2.00;;
10659;SDS011;5378;53.206;13.316;2023-07-31T13:45:09;4.40;;;2.20;;
10659;SDS011;5378;53.206;13.316;2023-07-31T13:47:58;3.63;;;2.30;;
10659;SDS011;5378;53.206;13.316;2023-07-31T13:50:45;4.10;;;2.10;;
10659;SDS011;5378;53.206;13.316;2023-07-31T13:53:32;2.43;;;1.93;;
10659;SDS011;5378;53.206;13.316;2023-07-31T13:56:19;2.07;;;1.87;;
10659;SDS011;5378;53.206;13.316;2023-07-31T13:59:06;1.57;;;1.47;;
10659;SDS011;5378;53.206;13.316;2023-07-31T14:01:53;3.10;;;2.07;;
10659;SDS011;5378;53.206;13.316;2023-07-31T14:04:42;4.13;;;1.83;;
10659;SDS011;5378;53.206;13.316;2023-07-31T14:07:29;3.10;;;2.00;;
10659;SDS011;5378;53.206;13.316;2023-07-31T14:10:16;3.53;;;1.73;;
10659;SDS011;5378;53.206;13.316;2023-07-31T14:13:03;3.23;;;1.63;;
10659;SDS011;5378;53.206;13.316;2023-07-31T14:15:50;4.00;;;1.67;;
10659;SDS011;5378;53.206;13.316;2023-07-31T14:18:38;3.40;;;2.00;;
10659;SDS011;5378;53.206;13.316;2023-07-31T14:21:26;2.87;;;1.87;;
10659;SDS011;5378;53.206;13.316;2023-07-31T14:24:13;2.20;;;1.80;;
10659;SDS011;5378;53.206;13.316;2023-07-31T14:27:01;3.73;;;2.10;;
10659;SDS011;5378;53.206;13.316;2023-07-31T14:29:48;2.87;;;2.07;;
10659;SDS011;5378;53.206;13.316;2023-07-31T14:32:35;3.00;;;2.10;;
10659;SDS011;5378;53.206;13.316;2023-07-31T14:35:23;3.77;;;2.20;;
10659;SDS011;5378;53.206;13.316;2023-07-31T14:38:11;4.13;;;2.40;;
10659;SDS011;5378;53.206;13.316;2023-07-31T14:40:58;4.80;;;2.23;;
10659;SDS011;5378;53.206;13.316;2023-07-31T14:43:45;3.97;;;2.40;;
10659;SDS011;5378;53.206;13.316;2023-07-31T14:46:32;3.50;;;2.30;;
10659;SDS011;5378;53.206;13.316;2023-07-31T14:49:19;4.13;;;2.40;;
10659;SDS011;5378;53.206;13.316;2023-07-31T14:52:06;4.40;;;2.67;;
10659;SDS011;5378;53.206;13.316;2023-07-31T14:54:55;5.90;;;2.40;;
10659;SDS011;5378;53.206;13.316;2023-07-31T14:57:42;5.53;;;2.30;;
10659;SDS011;5378;53.206;13.316;2023-07-31T15:00:29;4.60;;;2.20;;
10659;SDS011;5378;53.206;13.316;2023-07-31T15:03:17;5.50;;;2.47;;
10659;SDS011;5378;53.206;13.316;2023-07-31T15:06:04;2.80;;;2.30;;
10659;SDS011;5378;53.206;13.316;2023-07-31T15:08:53;3.27;;;2.23;;
10659;SDS011;5378;53.206;13.316;2023-07-31T15:11:41;4.37;;;2.50;;
10659;SDS011;5378;53.206;13.316;2023-07-31T15:14:29;3.23;;;1.80;;
10659;SDS011;5378;53.206;13.316;2023-07-31T15:17:16;4.57;;;2.20;;
10659;SDS011;5378;53.206;13.316;2023-07-31T15:20:04;4.20;;;2.43;;
10659;SDS011;5378;53.206;13.316;2023-07-31T15:22:52;4.67;;;1.90;;
10659;SDS011;5378;53.206;13.316;2023-07-31T15:25:39;8.20;;;2.27;;
10659;SDS011;5378;53.206;13.316;2023-07-31T15:28:28;2.80;;;2.30;;
10659;SDS011;5378;53.206;13.316;2023-07-31T15:31:15;5.17;;;2.40;;
10659;SDS011;5378;53.206;13.316;2023-07-31T15:34:02;5.67;;;2.17;;
10659;SDS011;5378;53.206;13.316;2023-07-31T15:36:49;6.20;;;2.57;;
10659;SDS011;5378;53.206;13.316;2023-07-31T15:39:37;4.10;;;2.37;;
10659;SDS011;5378;53.206;13.316;2023-07-31T15:42:24;1.93;;;1.63;;
10659;SDS011;5378;53.206;13.316;2023-07-31T15:45:12;4.30;;;2.20;;
10659;SDS011;5378;53.206;13.316;2023-07-31T15:47:59;2.77;;;1.83;;
10659;SDS011;5378;53.206;13.316;2023-07-31T15:50:47;4.40;;;1.97;;
10659;SDS011;5378;53.206;13.316;2023-07-31T15:53:34;4.20;;;2.03;;
10659;SDS011;5378;53.206;13.316;2023-07-31T15:56:21;2.17;;;1.73;;
10659;SDS011;5378;53.206;13.316;2023-07-31T15:59:08;6.90;;;2.10;;
10659;SDS011;5378;53.206;13.316;2023-07-31T16:01:57;2.90;;;2.13;;
10659;SDS011;5378;53.206;13.316;2023-07-31T16:04:44;4.30;;;2.47;;
10659;SDS011;5378;53.206;13.316;2023-07-31T16:07:31;4.10;;;2.20;;
10659;SDS011;5378;53.206;13.316;2023-07-31T16:10:18;4.00;;;2.50;;
10659;SDS011;5378;53.206;13.316;2023-07-31T16:13:05;4.30;;;2.37;;
10659;SDS011;5378;53.206;13.316;2023-07-31T16:15:53;2.50;;;1.60;;
10659;SDS011;5378;53.206;13.316;2023-07-31T16:18:41;4.10;;;2.30;;
10659;SDS011;5378;53.206;13.316;2023-07-31T16:21:28;3.23;;;2.30;;
10659;SDS011;5378;53.206;13.316;2023-07-31T16:24:15;3.13;;;2.10;;
10659;SDS011;5378;53.206;13.316;2023-07-31T16:27:05;3.67;;;2.03;;
10659;SDS011;5378;53.206;13.316;2023-07-31T16:29:53;4.13;;;2.43;;
10659;SDS011;5378;53.206;13.316;2023-07-31T16:32:40;4.83;;;2.57;;
10659;SDS011;5378;53.206;13.316;2023-07-31T16:35:29;9.80;;;2.83;;
10659;SDS011;5378;53.206;13.316;2023-07-31T16:38:16;3.90;;;2.43;;
10659;SDS011;5378;53.206;13.316;2023-07-31T16:41:03;5.43;;;3.43;;
10659;SDS011;5378;53.206;13.316;2023-07-31T16:43:52;3.90;;;2.17;;
10659;SDS011;5378;53.206;13.316;2023-07-31T16:46:39;4.20;;;2.40;;
10659;SDS011;5378;53.206;13.316;2023-07-31T16:49:26;7.67;;;2.37;;
10659;SDS011;5378;53.206;13.316;2023-07-31T16:52:14;12.03;;;3.10;;
10659;SDS011;5378;53.206;13.316;2023-07-31T16:55:02;3.53;;;2.33;;